Time;durP1;ratioP1;P1;durP2;ratioP2;P2;SDS_P1;SDS_P2;PMS_P1;PMS_P2;Temp;Humidity;BMP_temperature;BMP_pressure;BME280_temperature;BME280_humidity;BME280_pressure;Samples;Min_cycle;Max_cycle;Signal;HPM_P1;HPM_P2
2022/07/30 17:23:37;;;;;;;;;5.00;4.00;;;;;;;;5151366;27;79522;-78
2022/07/30 17:26:03;;;;;;;;;4.00;4.00;;;;;;;;5145173;27;20669;-81
2022/07/30 17:28:31;;;;;;;;;4.00;4.00;;;;;;;;5145436;27;8788;-79
2022/07/30 17:30:56;;;;;;;;;4.25;3.25;;;;;;;;5147877;27;8881;-84
2022/07/30 17:33:22;;;;;;;;;4.00;4.00;;;;;;;;5142905;27;10660;-74
2022/07/30 17:35:47;;;;;;;;;4.00;3.00;;;;;;;;5144880;27;10301;-75
2022/07/30 17:38:12;;;;;;;;;5.00;4.00;;;;;;;;5142216;27;8883;-77
2022/07/30 17:40:37;;;;;;;;;3.33;3.33;;;;;;;;5138726;27;10100;-73
2022/07/30 17:43:03;;;;;;;;;4.00;4.00;;;;;;;;5132192;27;11841;-73
2022/07/30 17:45:29;;;;;;;;;6.00;6.00;;;;;;;;5133235;27;11525;-72
2022/07/30 17:47:54;;;;;;;;;5.00;5.00;;;;;;;;5136004;27;9274;-74
2022/07/30 17:50:19;;;;;;;;;4.33;4.33;;;;;;;;5134889;27;8940;-76
2022/07/30 17:52:45;;;;;;;;;5.00;4.00;;;;;;;;5138988;27;11961;-71
2022/07/30 17:55:11;;;;;;;;;4.33;4.33;;;;;;;;5136076;27;11548;-81
2022/07/30 17:57:37;;;;;;;;;4.25;4.25;;;;;;;;5132003;27;11646;-76
2022/07/30 18:00:03;;;;;;;;;6.33;5.00;;;;;;;;5136469;27;8953;-72
2022/07/30 18:02:29;;;;;;;;;4.25;4.25;;;;;;;;5133061;27;11535;-73
2022/07/30 18:04:54;;;;;;;;;6.33;5.00;;;;;;;;5130914;27;11499;-72
2022/07/30 18:07:19;;;;;;;;;3.67;3.00;;;;;;;;5141715;27;12227;-73
2022/07/30 18:09:45;;;;;;;;;2.00;2.00;;;;;;;;5144161;27;11003;-75
2022/07/30 18:12:10;;;;;;;;;2.33;1.67;;;;;;;;5143210;27;10555;-73
2022/07/30 18:14:38;;;;;;;;;2.00;2.00;;;;;;;;5142421;27;11910;-82
2022/07/30 18:17:04;;;;;;;;;4.00;3.00;;;;;;;;5148036;27;10881;-82
2022/07/30 18:19:29;;;;;;;;;3.00;2.00;;;;;;;;5146466;27;8822;-79
2022/07/30 18:21:55;;;;;;;;;3.00;2.00;;;;;;;;5136493;27;8823;-77
2022/07/30 18:24:23;;;;;;;;;3.00;2.00;;;;;;;;5136120;27;8834;-80
2022/07/30 18:26:48;;;;;;;;;2.50;2.25;;;;;;;;5135173;27;8979;-80
2022/07/30 18:29:13;;;;;;;;;4.00;4.00;;;;;;;;5133330;27;11629;-79
2022/07/30 18:31:38;;;;;;;;;5.00;5.00;;;;;;;;5134511;27;11321;-77
2022/07/30 18:34:04;;;;;;;;;4.33;3.00;;;;;;;;5123235;27;8862;-77
2022/07/30 18:36:29;;;;;;;;;5.00;5.00;;;;;;;;5120727;27;11338;-75
2022/07/30 18:38:54;;;;;;;;;5.00;5.00;;;;;;;;5120769;28;10285;-80
2022/07/30 18:41:20;;;;;;;;;6.00;6.00;;;;;;;;5114831;28;8791;-82
2022/07/30 18:43:46;;;;;;;;;7.00;5.67;;;;;;;;5121387;28;8887;-77
2022/07/30 18:46:11;;;;;;;;;3.67;3.67;;;;;;;;5121922;28;11775;-80
2022/07/30 18:48:36;;;;;;;;;5.67;5.67;;;;;;;;5122116;28;10317;-75
2022/07/30 18:51:02;;;;;;;;;9.00;6.00;;;;;;;;5126075;27;8796;-77
2022/07/30 18:53:28;;;;;;;;;6.75;6.00;;;;;;;;5130591;27;11322;-76
2022/07/30 18:55:53;;;;;;;;;5.33;5.00;;;;;;;;5125786;27;8787;-77
2022/07/30 18:58:19;;;;;;;;;6.00;5.00;;;;;;;;5130982;27;9471;-87
2022/07/30 19:00:44;;;;;;;;;5.00;5.00;;;;;;;;5113209;27;8984;-81
2022/07/30 19:03:10;;;;;;;;;5.00;5.00;;;;;;;;5127729;27;8848;-75
2022/07/30 19:05:36;;;;;;;;;5.25;5.25;;;;;;;;5127420;27;8795;-74
2022/07/30 19:08:01;;;;;;;;;5.00;5.00;;;;;;;;5128642;27;9449;-73
2022/07/30 19:10:29;;;;;;;;;6.67;4.00;;;;;;;;5129095;27;8806;-74
2022/07/30 19:12:54;;;;;;;;;5.50;5.00;;;;;;;;5122823;27;10672;-75
2022/07/30 19:15:20;;;;;;;;;3.00;3.00;;;;;;;;5123895;27;10475;-72
2022/07/30 19:17:47;;;;;;;;;2.67;2.67;;;;;;;;5128046;27;13385;-72
2022/07/30 19:20:13;;;;;;;;;3.00;3.00;;;;;;;;5098508;28;13568;-78
2022/07/30 19:22:39;;;;;;;;;2.33;2.33;;;;;;;;5097677;28;11562;-75
2022/07/30 19:25:04;;;;;;;;;3.50;2.50;;;;;;;;5118929;28;11367;-72
2022/07/30 19:27:30;;;;;;;;;3.00;3.00;;;;;;;;5118766;27;11435;-75
2022/07/30 19:29:55;;;;;;;;;2.00;2.00;;;;;;;;5120825;27;10619;-73
2022/07/30 19:32:20;;;;;;;;;1.67;1.67;;;;;;;;5120187;27;9755;-74
2022/07/30 19:34:46;;;;;;;;;2.00;2.00;;;;;;;;5119570;28;11635;-74
2022/07/30 19:37:11;;;;;;;;;2.00;2.00;;;;;;;;5118666;27;11466;-79
2022/07/30 19:39:36;;;;;;;;;3.00;2.00;;;;;;;;5117981;28;8802;-73
2022/07/30 19:42:02;;;;;;;;;2.33;2.33;;;;;;;;5119100;28;8825;-76
2022/07/30 19:44:27;;;;;;;;;2.33;2.33;;;;;;;;5121387;27;11718;-86
2022/07/30 19:46:52;;;;;;;;;3.00;3.00;;;;;;;;5119053;28;8834;-76
2022/07/30 19:49:18;;;;;;;;;4.00;3.00;;;;;;;;5120977;28;11366;-76
2022/07/30 19:51:44;;;;;;;;;3.00;3.00;;;;;;;;5119406;28;9546;-75
2022/07/30 19:54:09;;;;;;;;;4.00;2.00;;;;;;;;5115633;28;9184;-74
2022/07/30 19:56:34;;;;;;;;;4.00;4.00;;;;;;;;5120015;28;8829;-73
2022/07/30 19:59:03;;;;;;;;;3.00;3.00;;;;;;;;5120482;28;8964;-78
2022/07/30 20:01:29;;;;;;;;;3.00;2.25;;;;;;;;5121050;27;8825;-79
2022/07/30 20:03:54;;;;;;;;;2.00;2.00;;;;;;;;5120417;27;8986;-71
2022/07/30 20:06:19;;;;;;;;;3.00;3.00;;;;;;;;5119351;27;11292;-70
2022/07/30 20:08:45;;;;;;;;;2.67;2.67;;;;;;;;5119802;27;9740;-70
2022/07/30 20:11:11;;;;;;;;;2.67;2.67;;;;;;;;5119158;27;11531;-71
2022/07/30 20:13:36;;;;;;;;;2.00;2.00;;;;;;;;5120356;27;8810;-72
2022/07/30 20:16:04;;;;;;;;;4.00;3.00;;;;;;;;5119566;27;8782;-70
2022/07/30 20:18:30;;;;;;;;;3.75;3.75;;;;;;;;5119879;27;9614;-70
2022/07/30 20:20:55;;;;;;;;;2.00;2.00;;;;;;;;5119947;27;11666;-71
2022/07/30 20:23:20;;;;;;;;;2.00;2.00;;;;;;;;5118800;27;11303;-71
2022/07/30 20:25:46;;;;;;;;;2.00;2.00;;;;;;;;5120092;27;9490;-70
2022/07/30 20:28:11;;;;;;;;;2.00;2.00;;;;;;;;5117766;28;8830;-71
2022/07/30 20:30:36;;;;;;;;;3.67;2.00;;;;;;;;5118176;28;8815;-71
2022/07/30 20:33:02;;;;;;;;;1.33;1.33;;;;;;;;5119140;27;8850;-70
2022/07/30 20:35:28;;;;;;;;;4.00;2.00;;;;;;;;5118989;27;11271;-71
2022/07/30 20:37:53;;;;;;;;;3.00;2.00;;;;;;;;5119614;27;11501;-70
2022/07/30 20:40:18;;;;;;;;;3.00;3.00;;;;;;;;5119717;27;11459;-70
2022/07/30 20:42:45;;;;;;;;;3.67;3.67;;;;;;;;5119895;27;8903;-71
2022/07/30 20:45:11;;;;;;;;;5.50;4.00;;;;;;;;5119338;27;8782;-70
2022/07/30 20:47:37;;;;;;;;;5.00;5.00;;;;;;;;5119313;27;11326;-71
2022/07/30 20:50:02;;;;;;;;;4.00;4.00;;;;;;;;5118981;27;9525;-71
2022/07/30 20:52:28;;;;;;;;;3.00;3.00;;;;;;;;5118334;28;10079;-71
2022/07/30 20:54:54;;;;;;;;;6.00;6.00;;;;;;;;5119780;27;9218;-71
2022/07/30 20:57:19;;;;;;;;;7.33;5.00;;;;;;;;5117633;28;10496;-71
2022/07/30 20:59:44;;;;;;;;;5.00;4.67;;;;;;;;5119291;27;10996;-71
2022/07/30 21:02:09;;;;;;;;;6.00;6.00;;;;;;;;5118917;27;11884;-71
2022/07/30 21:04:35;;;;;;;;;8.00;6.00;;;;;;;;5118637;27;11508;-70
2022/07/30 21:07:00;;;;;;;;;5.67;5.67;;;;;;;;5118892;27;8814;-70
2022/07/30 21:09:28;;;;;;;;;6.67;6.33;;;;;;;;5118812;27;11836;-70
2022/07/30 21:11:53;;;;;;;;;4.75;4.75;;;;;;;;5117501;28;12036;-71
2022/07/30 21:14:21;;;;;;;;;7.67;7.67;;;;;;;;5119392;27;10279;-71
2022/07/30 21:16:46;;;;;;;;;6.75;6.75;;;;;;;;5118236;27;11609;-71
2022/07/30 21:19:16;;;;;;;;;6.00;5.67;;;;;;;;5119747;27;11484;-70
2022/07/30 21:21:42;;;;;;;;;5.00;5.00;;;;;;;;5117893;27;10537;-71
2022/07/30 21:24:10;;;;;;;;;4.25;3.75;;;;;;;;5118939;28;11605;-71
2022/07/30 21:26:37;;;;;;;;;4.00;4.00;;;;;;;;5118102;27;11851;-71
2022/07/30 21:29:03;;;;;;;;;4.00;3.75;;;;;;;;5118945;27;10908;-70
2022/07/30 21:31:29;;;;;;;;;7.00;5.50;;;;;;;;5118786;27;9319;-72
2022/07/30 21:33:54;;;;;;;;;7.33;6.00;;;;;;;;5118362;27;11352;-71
2022/07/30 21:36:19;;;;;;;;;8.00;5.33;;;;;;;;5118733;28;11031;-71
2022/07/30 21:38:45;;;;;;;;;7.67;7.67;;;;;;;;5118310;27;11369;-72
2022/07/30 21:41:13;;;;;;;;;6.00;6.00;;;;;;;;5118619;27;11264;-72
2022/07/30 21:43:38;;;;;;;;;7.25;7.25;;;;;;;;5118685;27;11440;-72
2022/07/30 21:46:03;;;;;;;;;8.00;8.00;;;;;;;;5118721;27;11295;-71
2022/07/30 21:48:29;;;;;;;;;7.00;7.00;;;;;;;;5118794;27;11463;-71
2022/07/30 21:50:54;;;;;;;;;6.67;5.67;;;;;;;;5118798;27;8940;-71
2022/07/30 21:53:20;;;;;;;;;7.00;7.00;;;;;;;;5118294;27;11316;-72
2022/07/30 21:55:45;;;;;;;;;7.00;7.00;;;;;;;;5117733;27;11291;-72
2022/07/30 21:58:16;;;;;;;;;5.67;5.67;;;;;;;;5118476;27;8879;-71
2022/07/30 22:00:48;;;;;;;;;5.00;5.00;;;;;;;;5117989;28;11499;-72
2022/07/30 22:03:13;;;;;;;;;6.75;6.00;;;;;;;;5118203;27;8838;-72
2022/07/30 22:05:39;;;;;;;;;5.00;5.00;;;;;;;;5118496;27;10536;-72
2022/07/30 22:08:04;;;;;;;;;4.33;4.33;;;;;;;;5118324;27;10988;-72
2022/07/30 22:10:30;;;;;;;;;6.00;5.00;;;;;;;;5121895;27;11839;-72
2022/07/30 22:12:55;;;;;;;;;7.67;7.00;;;;;;;;5121921;27;11668;-72
2022/07/30 22:15:20;;;;;;;;;6.67;6.67;;;;;;;;5121364;27;10264;-71
2022/07/30 22:17:46;;;;;;;;;6.00;6.00;;;;;;;;5121716;27;11332;-72
2022/07/30 22:20:11;;;;;;;;;7.00;7.00;;;;;;;;5121528;27;8775;-72
2022/07/30 22:22:37;;;;;;;;;6.00;6.00;;;;;;;;5120698;28;8790;-72
2022/07/30 22:25:03;;;;;;;;;7.33;6.00;;;;;;;;5122124;27;9614;-72
2022/07/30 22:27:28;;;;;;;;;7.67;6.00;;;;;;;;5121832;27;8873;-72
2022/07/30 22:29:53;;;;;;;;;5.00;5.00;;;;;;;;5121592;27;8775;-72
2022/07/30 22:32:19;;;;;;;;;7.33;6.00;;;;;;;;5119732;28;12282;-73
2022/07/30 22:34:44;;;;;;;;;7.00;6.00;;;;;;;;5121639;27;10267;-73
2022/07/30 22:37:09;;;;;;;;;8.00;7.00;;;;;;;;5121502;27;8783;-72
2022/07/30 22:39:35;;;;;;;;;6.00;6.00;;;;;;;;5119545;28;9637;-71
2022/07/30 22:42:01;;;;;;;;;7.50;7.50;;;;;;;;5121617;28;9627;-72
2022/07/30 22:44:26;;;;;;;;;5.67;4.00;;;;;;;;5122070;28;11521;-72
2022/07/30 22:46:52;;;;;;;;;7.33;6.67;;;;;;;;5119869;28;14467;-72
2022/07/30 22:49:17;;;;;;;;;7.00;6.67;;;;;;;;5119765;28;13446;-72
2022/07/30 22:51:42;;;;;;;;;8.33;8.33;;;;;;;;5121368;27;8874;-73
2022/07/30 22:54:07;;;;;;;;;8.00;7.00;;;;;;;;5119689;28;13630;-73
2022/07/30 22:56:33;;;;;;;;;4.33;4.33;;;;;;;;5121434;27;10523;-72
2022/07/30 22:58:58;;;;;;;;;8.67;7.00;;;;;;;;5121120;27;11313;-72
2022/07/30 23:01:23;;;;;;;;;7.67;7.00;;;;;;;;5121103;27;11842;-72
2022/07/30 23:03:48;;;;;;;;;6.67;6.67;;;;;;;;5120567;27;8842;-72
2022/07/30 23:06:14;;;;;;;;;7.00;7.00;;;;;;;;5121013;27;11467;-72
2022/07/30 23:08:39;;;;;;;;;6.67;6.00;;;;;;;;5120744;27;11453;-71
2022/07/30 23:11:04;;;;;;;;;7.67;7.67;;;;;;;;5120812;27;10309;-72
2022/07/30 23:13:30;;;;;;;;;8.67;6.00;;;;;;;;5120560;27;11491;-72
2022/07/30 23:15:55;;;;;;;;;9.00;7.00;;;;;;;;5120131;27;11471;-72
2022/07/30 23:18:20;;;;;;;;;6.00;6.00;;;;;;;;5120436;27;10269;-73
2022/07/30 23:20:46;;;;;;;;;8.33;7.00;;;;;;;;5121057;27;8802;-72
2022/07/30 23:23:11;;;;;;;;;7.00;6.33;;;;;;;;5120996;27;10277;-73
2022/07/30 23:25:36;;;;;;;;;7.00;7.00;;;;;;;;5120888;27;11293;-73
2022/07/30 23:28:02;;;;;;;;;6.67;6.67;;;;;;;;5121078;27;9122;-73
2022/07/30 23:30:28;;;;;;;;;6.00;6.00;;;;;;;;5120903;28;11448;-72
2022/07/30 23:32:53;;;;;;;;;7.67;6.67;;;;;;;;5120289;27;9518;-72
2022/07/30 23:35:19;;;;;;;;;7.33;7.00;;;;;;;;5120202;27;11296;-72
2022/07/30 23:37:44;;;;;;;;;8.00;8.00;;;;;;;;5120608;27;10246;-72
2022/07/30 23:40:10;;;;;;;;;9.67;7.67;;;;;;;;5120259;27;10512;-72
2022/07/30 23:42:35;;;;;;;;;7.67;7.67;;;;;;;;5121182;27;11285;-72
2022/07/30 23:45:00;;;;;;;;;9.33;7.00;;;;;;;;5121074;28;8878;-71
2022/07/30 23:47:26;;;;;;;;;7.67;7.33;;;;;;;;5120535;27;12280;-72
2022/07/30 23:49:51;;;;;;;;;8.33;7.00;;;;;;;;5120646;27;11482;-72
2022/07/30 23:52:17;;;;;;;;;8.00;8.00;;;;;;;;5120231;27;11466;-72
2022/07/30 23:54:42;;;;;;;;;8.00;6.67;;;;;;;;5118732;28;11766;-72
2022/07/30 23:57:07;;;;;;;;;6.00;6.00;;;;;;;;5120386;27;8857;-72
2022/07/30 23:59:32;;;;;;;;;6.00;6.00;;;;;;;;5119738;28;11302;-72
